createdAt,value
2019-03-10T00:00:25.940Z,942.34
2019-03-10T00:01:25.820Z,942.37
2019-03-10T00:02:25.720Z,942.32
2019-03-10T00:03:25.621Z,942.36
2019-03-10T00:04:25.525Z,942.43
2019-03-10T00:05:25.434Z,942.53
2019-03-10T00:06:25.317Z,942.52
2019-03-10T00:07:25.221Z,942.55
2019-03-10T00:08:25.119Z,942.55
2019-03-10T00:09:25.047Z,942.55
2019-03-10T00:10:24.934Z,942.58
2019-03-10T00:11:24.815Z,942.60
2019-03-10T00:12:24.720Z,942.56
2019-03-10T00:13:24.614Z,942.59
2019-03-10T00:14:24.518Z,942.62
2019-03-10T00:15:24.428Z,942.56
2019-03-10T00:16:24.316Z,942.56
2019-03-10T00:17:24.209Z,942.49
2019-03-10T00:18:24.111Z,942.49
2019-03-10T00:19:24.032Z,942.50
2019-03-10T00:20:23.925Z,942.51
2019-03-10T00:21:23.812Z,942.53
2019-03-10T00:22:23.706Z,942.44
2019-03-10T00:23:23.613Z,942.40
2019-03-10T00:24:23.509Z,942.41
2019-03-10T00:25:23.423Z,942.44
2019-03-10T00:26:23.303Z,942.38
2019-03-10T00:27:23.205Z,942.37
2019-03-10T00:28:23.110Z,942.36
2019-03-10T00:29:23.001Z,942.37
2019-03-10T00:30:22.916Z,942.33
2019-03-10T00:31:22.799Z,942.30
2019-03-10T00:32:22.702Z,942.37
2019-03-10T00:33:22.601Z,942.32
2019-03-10T00:34:22.499Z,942.35
2019-03-10T00:35:22.415Z,942.39
2019-03-10T00:36:22.298Z,942.38
2019-03-10T00:37:22.201Z,942.37
2019-03-10T00:38:22.098Z,942.32
2019-03-10T00:39:21.995Z,942.33
2019-03-10T00:40:21.913Z,942.34
2019-03-10T00:41:21.793Z,942.35
2019-03-10T00:42:21.702Z,942.38
2019-03-10T00:43:21.896Z,942.36
2019-03-10T00:44:21.495Z,942.34
2019-03-10T00:45:21.410Z,942.39
2019-03-10T00:46:21.298Z,942.40
2019-03-10T00:47:21.190Z,942.39
2019-03-10T00:48:21.101Z,942.42
2019-03-10T00:49:20.995Z,942.32
2019-03-10T00:50:21.009Z,942.27
2019-03-10T00:51:20.790Z,942.26
2019-03-10T00:52:20.689Z,942.28
2019-03-10T00:53:20.595Z,942.26
2019-03-10T00:54:20.492Z,942.37
2019-03-10T00:55:20.407Z,942.34
2019-03-10T00:56:20.294Z,942.37
2019-03-10T00:57:20.192Z,942.39
2019-03-10T00:58:20.086Z,942.41
2019-03-10T00:59:19.989Z,942.39
2019-03-10T01:00:19.905Z,942.43
2019-03-10T01:01:19.786Z,942.44
2019-03-10T01:02:19.685Z,942.40
2019-03-10T01:03:19.585Z,942.36
2019-03-10T01:04:19.486Z,942.32
2019-03-10T01:05:19.398Z,942.35
2019-03-10T01:06:19.285Z,942.34
2019-03-10T01:07:19.182Z,942.39
2019-03-10T01:08:19.083Z,942.36
2019-03-10T01:09:18.982Z,942.32
2019-03-10T01:10:18.897Z,942.27
2019-03-10T01:11:18.784Z,942.26
2019-03-10T01:12:18.681Z,942.24
2019-03-10T01:13:18.584Z,942.25
2019-03-10T01:14:18.481Z,942.23
2019-03-10T01:15:18.456Z,942.27
2019-03-10T01:16:18.284Z,942.31
2019-03-10T01:17:18.179Z,942.29
2019-03-10T01:18:18.079Z,942.29
2019-03-10T01:19:17.979Z,942.28
2019-03-10T01:20:17.898Z,942.27
2019-03-10T01:21:17.778Z,942.23
2019-03-10T01:22:17.680Z,942.31
2019-03-10T01:23:17.580Z,942.32
2019-03-10T01:24:17.478Z,942.23
2019-03-10T01:25:17.395Z,942.28
2019-03-10T01:26:17.277Z,942.27
2019-03-10T01:27:17.179Z,942.23
2019-03-10T01:28:17.079Z,942.23
2019-03-10T01:29:16.979Z,942.20
2019-03-10T01:30:16.892Z,942.24
2019-03-10T01:31:16.777Z,942.19
2019-03-10T01:32:16.674Z,942.29
2019-03-10T01:33:16.576Z,942.26
2019-03-10T01:34:16.473Z,942.22
2019-03-10T01:35:16.392Z,942.17
2019-03-10T01:36:16.273Z,942.12
2019-03-10T01:37:16.177Z,942.10
2019-03-10T01:38:16.075Z,942.14
2019-03-10T01:39:15.974Z,942.01
2019-03-10T01:40:15.890Z,941.98
2019-03-10T01:41:15.771Z,942.09
2019-03-10T01:42:15.672Z,941.98
2019-03-10T01:43:15.569Z,942.03
2019-03-10T01:44:15.475Z,942.04
2019-03-10T01:45:15.373Z,942.04
2019-03-10T01:46:15.290Z,942.11
2019-03-10T01:47:15.170Z,942.12
2019-03-10T01:48:15.073Z,942.07
2019-03-10T01:49:14.970Z,942.09
2019-03-10T01:50:14.881Z,942.08
2019-03-10T01:51:14.785Z,942.07
2019-03-10T01:52:14.671Z,942.05
2019-03-10T01:53:14.571Z,942.04
2019-03-10T01:54:14.579Z,942.02
2019-03-10T01:55:14.369Z,941.99
2019-03-10T01:56:14.286Z,941.99
2019-03-10T01:57:14.165Z,942.01
2019-03-10T01:58:14.067Z,941.99
2019-03-10T01:59:13.967Z,941.98
2019-03-10T02:00:13.971Z,941.93
2019-03-10T02:01:13.787Z,941.97
2019-03-10T02:02:13.672Z,941.88
2019-03-10T02:03:13.567Z,941.86
2019-03-10T02:04:13.465Z,941.86
2019-03-10T02:05:13.371Z,941.73
2019-03-10T02:06:13.280Z,941.80
2019-03-10T02:07:13.166Z,941.83
2019-03-10T02:08:13.067Z,941.83
2019-03-10T02:09:12.963Z,941.70
2019-03-10T02:10:12.944Z,941.75
2019-03-10T02:11:12.777Z,941.74
2019-03-10T02:12:12.665Z,941.80
2019-03-10T02:13:12.565Z,941.82
2019-03-10T02:14:12.572Z,941.80
2019-03-10T02:15:12.364Z,941.78
2019-03-10T02:16:12.281Z,941.72
2019-03-10T02:17:12.161Z,941.68
2019-03-10T02:18:12.062Z,941.70
2019-03-10T02:19:11.965Z,941.67
2019-03-10T02:20:11.863Z,941.65
2019-03-10T02:21:11.887Z,941.60
2019-03-10T02:22:11.666Z,941.57
2019-03-10T02:23:11.560Z,941.52
2019-03-10T02:24:11.464Z,941.51
2019-03-10T02:25:11.362Z,941.50
2019-03-10T02:26:11.276Z,941.57
2019-03-10T02:27:11.161Z,941.56
2019-03-10T02:28:11.167Z,941.52
2019-03-10T02:29:10.962Z,941.50
2019-03-10T02:30:10.862Z,941.51
2019-03-10T02:31:10.776Z,941.54
2019-03-10T02:32:10.670Z,941.55
2019-03-10T02:33:10.559Z,941.55
2019-03-10T02:34:10.461Z,941.52
2019-03-10T02:35:10.467Z,941.48
2019-03-10T02:36:10.275Z,941.57
2019-03-10T02:37:10.162Z,941.56
2019-03-10T02:38:10.059Z,941.50
2019-03-10T02:39:09.975Z,941.53
2019-03-10T02:40:09.877Z,941.48
2019-03-10T02:41:09.774Z,941.51
2019-03-10T02:42:09.777Z,941.52
2019-03-10T02:43:09.559Z,941.48
2019-03-10T02:44:09.461Z,941.52
2019-03-10T02:45:09.363Z,941.50
2019-03-10T02:46:09.278Z,941.47
2019-03-10T02:47:09.161Z,941.53
2019-03-10T02:48:09.062Z,941.43
2019-03-10T02:49:09.061Z,941.48
2019-03-10T02:50:08.858Z,941.43
2019-03-10T02:51:08.778Z,941.41
2019-03-10T02:52:08.662Z,941.44
2019-03-10T02:53:08.559Z,941.38
2019-03-10T02:54:08.458Z,941.40
2019-03-10T02:55:08.358Z,941.37
2019-03-10T02:56:08.393Z,941.36
2019-03-10T02:57:08.161Z,941.30
2019-03-10T02:58:08.075Z,941.21
2019-03-10T02:59:07.961Z,941.27
2019-03-10T03:00:07.858Z,941.20
2019-03-10T03:01:07.794Z,941.15
2019-03-10T03:02:07.661Z,941.14
2019-03-10T03:03:07.669Z,941.15
2019-03-10T03:04:07.466Z,941.18
2019-03-10T03:05:07.357Z,941.21
2019-03-10T03:06:07.276Z,941.21
2019-03-10T03:07:07.170Z,941.21
2019-03-10T03:08:07.057Z,941.19
2019-03-10T03:09:06.960Z,941.24
2019-03-10T03:10:06.983Z,941.18
2019-03-10T03:11:06.774Z,941.17
2019-03-10T03:12:06.670Z,941.20
2019-03-10T03:13:06.568Z,941.11
2019-03-10T03:14:06.567Z,941.09
2019-03-10T03:15:06.361Z,941.07
2019-03-10T03:16:06.282Z,941.12
2019-03-10T03:17:06.265Z,941.11
2019-03-10T03:18:06.060Z,941.10
2019-03-10T03:19:05.967Z,941.07
2019-03-10T03:20:05.863Z,941.04
2019-03-10T03:21:05.774Z,941.02
2019-03-10T03:22:05.678Z,941.04
2019-03-10T03:23:05.562Z,941.04
2019-03-10T03:24:05.461Z,941.04
2019-03-10T03:25:05.361Z,941.01
2019-03-10T03:26:05.282Z,940.95
2019-03-10T03:27:05.196Z,940.93
2019-03-10T03:28:05.064Z,940.85
2019-03-10T03:29:04.969Z,940.86
2019-03-10T03:30:04.862Z,940.86
2019-03-10T03:31:04.770Z,940.89
2019-03-10T03:32:04.682Z,940.89
2019-03-10T03:33:04.562Z,940.85
2019-03-10T03:34:04.529Z,940.90
2019-03-10T03:35:04.369Z,940.84
2019-03-10T03:36:04.266Z,940.84
2019-03-10T03:37:04.182Z,940.86
2019-03-10T03:38:04.068Z,940.84
2019-03-10T03:39:03.977Z,940.84
2019-03-10T03:40:03.867Z,940.80
2019-03-10T03:41:03.768Z,940.72
2019-03-10T03:42:03.682Z,940.73
2019-03-10T03:43:03.569Z,940.72
2019-03-10T03:44:03.472Z,940.66
2019-03-10T03:45:03.373Z,940.63
2019-03-10T03:46:03.277Z,940.64
2019-03-10T03:47:03.189Z,940.64
2019-03-10T03:48:03.070Z,940.60
2019-03-10T03:49:02.967Z,940.58
2019-03-10T03:50:02.869Z,940.50
2019-03-10T03:51:02.817Z,940.46
2019-03-10T03:52:02.686Z,940.42
2019-03-10T03:53:02.570Z,940.34
2019-03-10T03:54:02.471Z,940.32
2019-03-10T03:55:02.420Z,940.35
2019-03-10T03:56:02.272Z,940.37
2019-03-10T03:57:02.187Z,940.34
2019-03-10T03:58:02.069Z,940.35
2019-03-10T03:59:01.973Z,940.33
2019-03-10T04:00:01.870Z,940.34
2019-03-10T04:01:01.773Z,940.34
2019-03-10T04:02:01.689Z,940.38
2019-03-10T04:03:01.572Z,940.36
2019-03-10T04:04:01.473Z,940.36
2019-03-10T04:05:01.375Z,940.33
2019-03-10T04:06:01.275Z,940.28
2019-03-10T04:07:01.198Z,940.29
2019-03-10T04:08:01.080Z,940.29
2019-03-10T04:09:00.975Z,940.27
2019-03-10T04:10:00.875Z,940.20
2019-03-10T04:11:00.774Z,940.23
2019-03-10T04:12:00.726Z,940.20
2019-03-10T04:13:00.579Z,940.23
2019-03-10T04:14:00.474Z,940.21
2019-03-10T04:15:00.495Z,940.20
2019-03-10T04:16:00.278Z,940.18
2019-03-10T04:17:00.289Z,940.15
2019-03-10T04:18:00.076Z,940.17
2019-03-10T04:18:59.979Z,940.18
2019-03-10T04:19:59.876Z,940.18
2019-03-10T04:20:59.778Z,940.22
2019-03-10T04:21:59.696Z,940.16
2019-03-10T04:22:59.575Z,940.16
2019-03-10T04:23:59.480Z,940.15
2019-03-10T04:24:59.378Z,940.10
2019-03-10T04:25:59.279Z,940.10
2019-03-10T04:26:59.193Z,940.11
2019-03-10T04:27:59.081Z,940.08
2019-03-10T04:28:58.982Z,940.03
2019-03-10T04:29:58.880Z,940.06
2019-03-10T04:30:58.783Z,940.05
2019-03-10T04:31:58.698Z,940.03
2019-03-10T04:32:58.580Z,940.04
2019-03-10T04:33:58.479Z,940.00
2019-03-10T04:34:58.381Z,939.98
2019-03-10T04:35:58.284Z,939.98
2019-03-10T04:36:58.203Z,939.94
2019-03-10T04:37:58.083Z,939.96
2019-03-10T04:38:57.987Z,939.93
2019-03-10T04:39:57.885Z,939.93
2019-03-10T04:40:57.780Z,939.91
2019-03-10T04:41:57.697Z,939.89
2019-03-10T04:42:57.583Z,939.90
2019-03-10T04:43:57.525Z,939.82
2019-03-10T04:44:57.381Z,939.85
2019-03-10T04:45:57.284Z,939.79
2019-03-10T04:46:57.200Z,939.71
2019-03-10T04:47:57.086Z,939.71
2019-03-10T04:48:56.987Z,939.68
2019-03-10T04:49:56.886Z,939.75
2019-03-10T04:50:56.786Z,939.74
2019-03-10T04:51:56.700Z,939.70
2019-03-10T04:52:56.585Z,939.73
2019-03-10T04:53:56.501Z,939.70
2019-03-10T04:54:56.385Z,939.70
2019-03-10T04:55:56.284Z,939.69
2019-03-10T04:56:56.202Z,939.67
2019-03-10T04:57:56.086Z,939.69
2019-03-10T04:58:55.989Z,939.64
2019-03-10T04:59:55.888Z,939.63
2019-03-10T05:00:55.886Z,939.63
2019-03-10T05:01:55.702Z,939.63
2019-03-10T05:02:55.584Z,939.61
2019-03-10T05:03:55.487Z,939.58
2019-03-10T05:04:55.395Z,939.56
2019-03-10T05:05:55.295Z,939.63
2019-03-10T05:06:55.204Z,939.60
2019-03-10T05:07:55.191Z,939.63
2019-03-10T05:08:54.986Z,939.66
2019-03-10T05:09:54.887Z,939.64
2019-03-10T05:10:54.784Z,939.64
2019-03-10T05:11:54.701Z,939.63
2019-03-10T05:12:54.586Z,939.60
2019-03-10T05:13:54.483Z,939.57
2019-03-10T05:14:54.513Z,939.59
2019-03-10T05:15:54.284Z,939.55
2019-03-10T05:16:54.187Z,939.55
2019-03-10T05:17:54.107Z,939.59
2019-03-10T05:18:53.988Z,939.56
2019-03-10T05:19:53.887Z,939.56
2019-03-10T05:20:53.783Z,939.54
2019-03-10T05:21:53.787Z,939.57
2019-03-10T05:22:53.601Z,939.56
2019-03-10T05:23:53.537Z,939.50
2019-03-10T05:24:53.383Z,939.49
2019-03-10T05:25:53.286Z,939.45
2019-03-10T05:26:53.189Z,939.46
2019-03-10T05:27:53.099Z,939.44
2019-03-10T05:28:53.110Z,939.40
2019-03-10T05:29:52.885Z,939.41
2019-03-10T05:30:52.782Z,939.40
2019-03-10T05:31:52.689Z,939.38
2019-03-10T05:32:52.603Z,939.31
2019-03-10T05:33:52.483Z,939.26
2019-03-10T05:34:52.382Z,939.25
2019-03-10T05:35:52.393Z,939.25
2019-03-10T05:36:52.187Z,939.20
2019-03-10T05:37:52.098Z,939.11
2019-03-10T05:38:51.986Z,939.07
2019-03-10T05:39:51.881Z,939.09
2019-03-10T05:40:51.780Z,939.06
2019-03-10T05:41:51.681Z,939.07
2019-03-10T05:42:51.689Z,939.06
2019-03-10T05:43:51.484Z,939.04
2019-03-10T05:44:51.387Z,939.01
2019-03-10T05:45:51.278Z,938.97
2019-03-10T05:46:51.182Z,938.94
2019-03-10T05:47:51.095Z,938.92
2019-03-10T05:48:50.978Z,938.87
2019-03-10T05:49:50.982Z,938.89
2019-03-10T05:50:50.782Z,938.84
2019-03-10T05:51:50.682Z,938.83
2019-03-10T05:52:50.595Z,938.80
2019-03-10T05:53:50.481Z,938.73
2019-03-10T05:54:50.380Z,938.69
2019-03-10T05:55:50.280Z,938.73
2019-03-10T05:56:50.179Z,938.66
2019-03-10T05:57:50.116Z,938.64
2019-03-10T05:58:49.988Z,938.67
2019-03-10T05:59:49.882Z,938.64
2019-03-10T06:00:49.804Z,938.60
2019-03-10T06:01:49.685Z,938.60
2019-03-10T06:02:49.583Z,938.56
2019-03-10T06:03:49.497Z,938.54
2019-03-10T06:04:49.379Z,938.49
2019-03-10T06:05:49.281Z,938.48
2019-03-10T06:06:49.184Z,938.43
2019-03-10T06:07:49.103Z,938.41
2019-03-10T06:08:48.980Z,938.35
2019-03-10T06:09:48.882Z,938.31
2019-03-10T06:10:48.781Z,938.35
2019-03-10T06:11:48.683Z,938.32
2019-03-10T06:12:48.599Z,938.28
2019-03-10T06:13:48.481Z,938.25
2019-03-10T06:14:48.389Z,938.23
2019-03-10T06:15:48.277Z,938.21
2019-03-10T06:16:48.184Z,938.18
2019-03-10T06:17:48.095Z,938.12
2019-03-10T06:18:47.980Z,938.09
2019-03-10T06:19:47.877Z,938.00
2019-03-10T06:20:47.777Z,937.96
2019-03-10T06:21:47.676Z,937.94
2019-03-10T06:22:47.594Z,937.92
2019-03-10T06:23:47.482Z,937.85
2019-03-10T06:24:47.383Z,937.88
2019-03-10T06:25:47.277Z,937.80
2019-03-10T06:26:47.178Z,937.80
2019-03-10T06:27:47.095Z,937.75
2019-03-10T06:28:46.976Z,937.69
2019-03-10T06:29:46.880Z,937.68
2019-03-10T06:30:46.777Z,937.65
2019-03-10T06:31:46.678Z,937.69
2019-03-10T06:32:46.593Z,937.68
2019-03-10T06:33:46.476Z,937.69
2019-03-10T06:34:46.377Z,937.65
2019-03-10T06:35:46.276Z,937.65
2019-03-10T06:36:46.176Z,937.64
2019-03-10T06:37:46.090Z,937.68
2019-03-10T06:38:46.025Z,937.72
2019-03-10T06:39:45.878Z,937.67
2019-03-10T06:40:45.775Z,937.69
2019-03-10T06:41:45.678Z,937.72
2019-03-10T06:42:45.591Z,937.70
2019-03-10T06:43:45.473Z,937.71
2019-03-10T06:44:45.375Z,937.67
2019-03-10T06:45:45.276Z,937.71
2019-03-10T06:46:45.173Z,937.70
2019-03-10T06:47:45.092Z,937.63
2019-03-10T06:48:44.973Z,937.66
2019-03-10T06:49:44.871Z,937.68
2019-03-10T06:50:44.771Z,937.60
2019-03-10T06:51:44.672Z,937.61
2019-03-10T06:52:44.572Z,937.53
2019-03-10T06:53:44.492Z,937.51
2019-03-10T06:54:44.374Z,937.46
2019-03-10T06:55:44.279Z,937.34
2019-03-10T06:56:44.171Z,937.40
2019-03-10T06:57:44.085Z,937.35
2019-03-10T06:58:43.970Z,937.33
2019-03-10T06:59:43.869Z,937.25
2019-03-10T07:00:43.769Z,937.20
2019-03-10T07:01:43.668Z,937.20
2019-03-10T07:02:43.572Z,937.19
2019-03-10T07:03:43.488Z,937.12
2019-03-10T07:04:43.373Z,937.11
2019-03-10T07:05:43.267Z,937.12
2019-03-10T07:06:43.171Z,937.12
2019-03-10T07:07:43.067Z,937.09
2019-03-10T07:08:42.981Z,937.09
2019-03-10T07:09:42.867Z,937.05
2019-03-10T07:10:42.764Z,937.12
2019-03-10T07:11:42.663Z,937.14
2019-03-10T07:12:42.565Z,937.17
2019-03-10T07:13:42.482Z,937.15
2019-03-10T07:14:42.362Z,937.16
2019-03-10T07:15:42.267Z,937.12
2019-03-10T07:16:42.161Z,937.13
2019-03-10T07:17:42.063Z,937.11
2019-03-10T07:18:41.979Z,937.17
2019-03-10T07:19:41.861Z,937.18
2019-03-10T07:20:41.760Z,937.23
2019-03-10T07:21:41.660Z,937.21
2019-03-10T07:22:41.560Z,937.17
2019-03-10T07:23:41.488Z,937.20
2019-03-10T07:24:41.361Z,937.09
2019-03-10T07:25:41.257Z,937.14
2019-03-10T07:26:41.169Z,937.13
2019-03-10T07:27:41.174Z,937.15
2019-03-10T07:28:40.975Z,937.08
2019-03-10T07:29:40.854Z,937.07
2019-03-10T07:30:40.753Z,937.10
2019-03-10T07:31:40.658Z,937.15
2019-03-10T07:32:40.555Z,937.14
2019-03-10T07:33:40.469Z,937.09
2019-03-10T07:34:40.454Z,937.08
2019-03-10T07:35:40.252Z,937.05
2019-03-10T07:36:40.151Z,937.04
2019-03-10T07:37:40.054Z,936.99
2019-03-10T07:38:39.963Z,936.95
2019-03-10T07:39:39.849Z,936.98
2019-03-10T07:40:39.745Z,936.99
2019-03-10T07:41:39.751Z,936.96
2019-03-10T07:42:39.545Z,936.98
2019-03-10T07:43:39.462Z,936.95
2019-03-10T07:44:39.342Z,936.91
2019-03-10T07:45:39.245Z,936.91
2019-03-10T07:46:39.144Z,936.89
2019-03-10T07:47:39.042Z,936.88
2019-03-10T07:48:39.071Z,936.82
2019-03-10T07:49:38.839Z,936.80
2019-03-10T07:50:38.741Z,936.79
2019-03-10T07:51:38.640Z,936.80
2019-03-10T07:52:38.539Z,936.80
2019-03-10T07:53:38.451Z,936.79
2019-03-10T07:54:38.335Z,936.76
2019-03-10T07:55:38.358Z,936.74
2019-03-10T07:56:38.134Z,936.71
2019-03-10T07:57:38.039Z,936.65
2019-03-10T07:58:37.952Z,936.66
2019-03-10T07:59:37.839Z,936.63
2019-03-10T08:00:37.734Z,936.61
2019-03-10T08:01:37.630Z,936.54
2019-03-10T08:02:37.637Z,936.54
2019-03-10T08:03:37.448Z,936.54
2019-03-10T08:04:37.329Z,936.53
2019-03-10T08:05:37.229Z,936.58
2019-03-10T08:06:37.131Z,936.57
2019-03-10T08:07:37.029Z,936.54
2019-03-10T08:08:36.947Z,936.57
2019-03-10T08:09:36.941Z,936.52
2019-03-10T08:10:36.727Z,936.51
2019-03-10T08:11:36.627Z,936.47
2019-03-10T08:12:36.529Z,936.37
2019-03-10T08:13:36.441Z,936.34
2019-03-10T08:14:36.327Z,936.36
2019-03-10T08:15:36.225Z,936.36
2019-03-10T08:16:36.236Z,936.37
2019-03-10T08:17:36.023Z,936.24
2019-03-10T08:18:35.940Z,936.21
2019-03-10T08:19:35.827Z,936.16
2019-03-10T08:20:35.728Z,936.18
2019-03-10T08:21:35.625Z,936.14
2019-03-10T08:22:35.523Z,936.11
2019-03-10T08:23:35.557Z,936.06
2019-03-10T08:24:35.324Z,936.03
2019-03-10T08:25:35.222Z,936.06
2019-03-10T08:26:35.125Z,936.02
2019-03-10T08:27:35.020Z,935.98
2019-03-10T08:28:34.919Z,935.95
2019-03-10T08:29:34.834Z,935.96
2019-03-10T08:30:34.817Z,935.98
2019-03-10T08:31:34.617Z,935.95
2019-03-10T08:32:34.516Z,935.91
2019-03-10T08:33:34.421Z,935.91
2019-03-10T08:34:34.333Z,935.85
2019-03-10T08:35:34.217Z,935.77
2019-03-10T08:36:34.112Z,935.77
2019-03-10T08:37:34.120Z,935.71
2019-03-10T08:38:33.914Z,935.72
2019-03-10T08:39:33.832Z,935.60
2019-03-10T08:40:33.714Z,935.52
2019-03-10T08:41:33.615Z,935.52
2019-03-10T08:42:33.516Z,935.49
2019-03-10T08:43:33.413Z,935.46
2019-03-10T08:44:33.430Z,935.42
2019-03-10T08:45:33.209Z,935.43
2019-03-10T08:46:33.111Z,935.34
2019-03-10T08:47:33.014Z,935.37
2019-03-10T08:48:32.910Z,935.31
2019-03-10T08:49:32.826Z,935.28
2019-03-10T08:50:32.710Z,935.36
2019-03-10T08:51:32.713Z,935.27
2019-03-10T08:52:32.510Z,935.24
2019-03-10T08:53:32.409Z,935.22
2019-03-10T08:54:32.329Z,935.20
2019-03-10T08:55:32.212Z,935.13
2019-03-10T08:56:32.109Z,935.10
2019-03-10T08:57:32.009Z,935.08
2019-03-10T08:58:31.911Z,935.04
2019-03-10T08:59:31.826Z,935.07
2019-03-10T09:00:31.715Z,934.96
2019-03-10T09:01:31.615Z,934.97
2019-03-10T09:02:31.509Z,934.95
2019-03-10T09:03:31.408Z,934.92
2019-03-10T09:04:31.327Z,934.89
2019-03-10T09:05:31.210Z,934.86
2019-03-10T09:06:31.109Z,934.79
2019-03-10T09:07:31.009Z,934.71
2019-03-10T09:08:30.913Z,934.70
2019-03-10T09:09:30.829Z,934.68
2019-03-10T09:10:30.709Z,934.55
2019-03-10T09:11:30.615Z,934.56
2019-03-10T09:12:30.508Z,934.51
2019-03-10T09:13:30.409Z,934.46
2019-03-10T09:14:30.329Z,934.45
2019-03-10T09:15:30.209Z,934.43
2019-03-10T09:16:30.108Z,934.46
2019-03-10T09:17:30.011Z,934.40
2019-03-10T09:18:29.908Z,934.39
2019-03-10T09:19:29.825Z,934.46
2019-03-10T09:20:29.708Z,934.40
2019-03-10T09:21:29.627Z,934.42
2019-03-10T09:22:29.513Z,934.37
2019-03-10T09:23:29.408Z,934.33
2019-03-10T09:24:29.330Z,934.30
2019-03-10T09:25:29.209Z,934.28
2019-03-10T09:26:29.107Z,934.33
2019-03-10T09:27:29.013Z,934.32
2019-03-10T09:28:28.908Z,934.26
2019-03-10T09:29:28.810Z,934.25
2019-03-10T09:30:28.723Z,934.22
2019-03-10T09:31:28.607Z,934.20
2019-03-10T09:32:28.506Z,934.14
2019-03-10T09:33:28.407Z,934.11
2019-03-10T09:34:28.309Z,934.14
2019-03-10T09:35:28.229Z,934.14
2019-03-10T09:36:28.109Z,934.03
2019-03-10T09:37:28.008Z,934.03
2019-03-10T09:38:27.908Z,934.02
2019-03-10T09:39:27.825Z,933.99
2019-03-10T09:40:27.726Z,933.99
2019-03-10T09:41:27.622Z,934.01
2019-03-10T09:42:27.507Z,933.91
2019-03-10T09:43:27.405Z,933.96
2019-03-10T09:44:27.306Z,933.92
2019-03-10T09:45:27.223Z,933.94
2019-03-10T09:46:27.109Z,933.85
2019-03-10T09:47:27.006Z,933.78
2019-03-10T09:48:26.904Z,933.82
2019-03-10T09:49:26.807Z,933.82
2019-03-10T09:50:26.720Z,933.84
2019-03-10T09:51:26.612Z,933.84
2019-03-10T09:52:26.503Z,933.79
2019-03-10T09:53:26.410Z,933.84
2019-03-10T09:54:26.307Z,933.83
2019-03-10T09:55:26.221Z,933.83
2019-03-10T09:56:26.110Z,933.73
2019-03-10T09:57:26.007Z,933.67
2019-03-10T09:58:25.905Z,933.66
2019-03-10T09:59:25.806Z,933.67
2019-03-10T10:00:25.722Z,933.67
2019-03-10T10:01:25.606Z,933.63
2019-03-10T10:02:25.506Z,933.52
2019-03-10T10:03:25.406Z,933.54
2019-03-10T10:04:25.308Z,933.50
2019-03-10T10:05:25.223Z,933.50
2019-03-10T10:06:25.108Z,933.49
2019-03-10T10:07:25.006Z,933.46
2019-03-10T10:08:24.908Z,933.46
2019-03-10T10:09:24.833Z,933.45
2019-03-10T10:10:24.727Z,933.40
2019-03-10T10:11:24.609Z,933.38
2019-03-10T10:12:24.511Z,933.36
2019-03-10T10:13:24.407Z,933.40
2019-03-10T10:14:24.411Z,933.26
2019-03-10T10:15:24.230Z,933.26
2019-03-10T10:16:24.108Z,933.30
2019-03-10T10:17:24.006Z,933.25
2019-03-10T10:18:23.910Z,933.29
2019-03-10T10:19:23.813Z,933.28
2019-03-10T10:20:23.726Z,933.27
2019-03-10T10:21:23.714Z,933.38
2019-03-10T10:22:23.514Z,933.25
2019-03-10T10:23:23.414Z,933.15
2019-03-10T10:24:23.315Z,933.09
2019-03-10T10:25:23.229Z,933.09
2019-03-10T10:26:23.112Z,933.14
2019-03-10T10:27:23.013Z,933.12
2019-03-10T10:28:23.011Z,933.12
2019-03-10T10:29:22.814Z,932.98
2019-03-10T10:30:22.731Z,933.00
2019-03-10T10:31:22.616Z,932.88
2019-03-10T10:32:22.515Z,932.91
2019-03-10T10:33:22.416Z,932.94
2019-03-10T10:34:22.316Z,932.99
2019-03-10T10:35:22.327Z,933.00
2019-03-10T10:36:22.134Z,932.97
2019-03-10T10:37:22.017Z,932.80
2019-03-10T10:38:21.922Z,932.69
2019-03-10T10:39:21.819Z,932.69
2019-03-10T10:40:21.721Z,932.59
2019-03-10T10:41:21.637Z,932.52
2019-03-10T10:42:21.623Z,932.51
2019-03-10T10:43:21.420Z,932.44
2019-03-10T10:44:21.325Z,932.50
2019-03-10T10:45:21.224Z,932.48
2019-03-10T10:46:21.141Z,932.43
2019-03-10T10:47:21.040Z,932.45
2019-03-10T10:48:20.923Z,932.53
2019-03-10T10:49:20.929Z,932.48
2019-03-10T10:50:20.729Z,932.62
2019-03-10T10:51:20.693Z,932.47
2019-03-10T10:52:20.526Z,932.49
2019-03-10T10:53:21.467Z,932.52
2019-03-10T10:54:20.337Z,932.43
2019-03-10T10:55:20.274Z,932.42
2019-03-10T10:56:20.280Z,932.41
2019-03-10T10:57:20.045Z,932.48
2019-03-10T10:58:19.934Z,932.43
2019-03-10T10:59:19.839Z,932.32
2019-03-10T11:00:19.732Z,932.29
2019-03-10T11:01:19.650Z,932.28
2019-03-10T11:02:19.535Z,932.28
2019-03-10T11:03:19.539Z,932.21
2019-03-10T11:04:19.344Z,932.30
2019-03-10T11:05:19.236Z,932.28
2019-03-10T11:06:19.861Z,932.23
2019-03-10T11:07:19.041Z,932.20
2019-03-10T11:08:18.939Z,932.09
2019-03-10T11:09:18.841Z,932.12
2019-03-10T11:10:18.863Z,932.10
2019-03-10T11:11:18.665Z,932.10
2019-03-10T11:12:18.545Z,932.11
2019-03-10T11:13:18.450Z,932.12
2019-03-10T11:14:18.349Z,932.05
2019-03-10T11:15:18.250Z,932.09
2019-03-10T11:16:18.168Z,932.05
2019-03-10T11:17:18.155Z,932.04
2019-03-10T11:18:17.954Z,932.04
2019-03-10T11:19:17.860Z,932.03
2019-03-10T11:20:17.760Z,931.99
2019-03-10T11:21:17.681Z,931.95
2019-03-10T11:22:17.566Z,932.00
2019-03-10T11:23:17.591Z,932.00
2019-03-10T11:24:17.368Z,932.01
2019-03-10T11:25:17.269Z,931.99
2019-03-10T11:26:17.188Z,931.95
2019-03-10T11:27:17.072Z,932.02
2019-03-10T11:28:16.974Z,931.86
2019-03-10T11:29:16.876Z,931.85
2019-03-10T11:30:16.781Z,931.83
2019-03-10T11:31:16.697Z,931.83
2019-03-10T11:32:16.580Z,931.84
2019-03-10T11:33:16.493Z,931.89
2019-03-10T11:34:16.391Z,931.66
2019-03-10T11:35:16.289Z,931.78
2019-03-10T11:36:16.210Z,931.84
2019-03-10T11:37:16.096Z,931.86
2019-03-10T11:38:15.997Z,931.69
2019-03-10T11:39:15.902Z,931.72
2019-03-10T11:40:15.803Z,931.64
2019-03-10T11:41:15.718Z,931.61
2019-03-10T11:42:15.605Z,931.63
2019-03-10T11:43:15.507Z,931.47
2019-03-10T11:44:15.412Z,931.46
2019-03-10T11:45:15.311Z,931.37
2019-03-10T11:46:15.229Z,931.39
2019-03-10T11:47:15.119Z,931.37
2019-03-10T11:48:15.019Z,931.28
2019-03-10T11:49:14.922Z,931.29
2019-03-10T11:50:15.264Z,931.27
2019-03-10T11:51:14.749Z,931.29
2019-03-10T11:52:14.705Z,931.31
2019-03-10T11:53:19.217Z,931.20
2019-03-10T11:54:14.432Z,931.30
2019-03-10T11:55:14.435Z,931.18
2019-03-10T11:56:14.255Z,931.22
2019-03-10T11:57:14.146Z,931.15
2019-03-10T11:58:14.044Z,931.09
2019-03-10T11:59:13.947Z,931.06
2019-03-10T12:00:13.848Z,931.03
2019-03-10T12:01:13.767Z,930.98
2019-03-10T12:02:16.355Z,930.91
2019-03-10T12:03:13.558Z,930.87
2019-03-10T12:04:13.460Z,930.84
2019-03-10T12:05:13.361Z,930.83
2019-03-10T12:06:13.700Z,930.82
2019-03-10T12:07:13.172Z,930.78
2019-03-10T12:08:13.070Z,930.70
2019-03-10T12:09:12.972Z,930.73
2019-03-10T12:10:12.876Z,930.78
2019-03-10T12:11:12.794Z,930.75
2019-03-10T12:12:12.684Z,930.76
2019-03-10T12:13:12.581Z,930.77
2019-03-10T12:14:12.492Z,930.69
2019-03-10T12:15:12.392Z,930.72
2019-03-10T12:16:12.305Z,930.74
2019-03-10T12:17:12.197Z,930.68
2019-03-10T12:18:12.098Z,930.67
2019-03-10T12:19:11.999Z,930.56
2019-03-10T12:20:11.899Z,930.58
2019-03-10T12:21:11.844Z,930.36
2019-03-10T12:22:11.722Z,930.52
2019-03-10T12:23:11.610Z,930.51
2019-03-10T12:24:11.517Z,930.43
2019-03-10T12:25:11.412Z,930.32
2019-03-10T12:26:11.318Z,930.41
2019-03-10T12:27:11.238Z,930.44